sensor_id;sensor_type;location;lat;lon;timestamp;P1;durP1;ratioP1;P2;durP2;ratioP2
55879;SDS011;41802;51.564;-1.838;2023-04-03T00:00:47;8.30;;;1.50;;
55879;SDS011;41802;51.564;-1.838;2023-04-03T00:03:18;9.43;;;1.07;;
55879;SDS011;41802;51.564;-1.838;2023-04-03T00:05:46;6.60;;;1.02;;
55879;SDS011;41802;51.564;-1.838;2023-04-03T00:08:14;4.43;;;0.70;;
55879;SDS011;41802;51.564;-1.838;2023-04-03T00:10:45;9.10;;;1.20;;
55879;SDS011;41802;51.564;-1.838;2023-04-03T00:13:13;6.40;;;1.02;;
55879;SDS011;41802;51.564;-1.838;2023-04-03T00:15:41;5.40;;;0.70;;
55879;SDS011;41802;51.564;-1.838;2023-04-03T00:18:09;7.72;;;1.10;;
55879;SDS011;41802;51.564;-1.838;2023-04-03T00:20:38;7.38;;;1.27;;
55879;SDS011;41802;51.564;-1.838;2023-04-03T00:23:06;5.40;;;1.27;;
55879;SDS011;41802;51.564;-1.838;2023-04-03T00:25:34;8.07;;;1.50;;
55879;SDS011;41802;51.564;-1.838;2023-04-03T00:28:02;8.83;;;1.53;;
55879;SDS011;41802;51.564;-1.838;2023-04-03T00:30:30;7.82;;;1.33;;
55879;SDS011;41802;51.564;-1.838;2023-04-03T00:32:58;6.43;;;1.27;;
55879;SDS011;41802;51.564;-1.838;2023-04-03T00:35:27;6.78;;;1.33;;
55879;SDS011;41802;51.564;-1.838;2023-04-03T00:37:56;5.80;;;1.02;;
55879;SDS011;41802;51.564;-1.838;2023-04-03T00:40:24;11.43;;;1.60;;
55879;SDS011;41802;51.564;-1.838;2023-04-03T00:42:55;6.57;;;1.17;;
55879;SDS011;41802;51.564;-1.838;2023-04-03T00:45:24;8.88;;;1.58;;
55879;SDS011;41802;51.564;-1.838;2023-04-03T00:47:54;7.30;;;1.08;;
55879;SDS011;41802;51.564;-1.838;2023-04-03T00:50:22;5.75;;;1.42;;
55879;SDS011;41802;51.564;-1.838;2023-04-03T00:52:50;5.87;;;1.07;;
55879;SDS011;41802;51.564;-1.838;2023-04-03T00:55:19;8.20;;;1.48;;
55879;SDS011;41802;51.564;-1.838;2023-04-03T00:57:47;7.63;;;1.60;;
55879;SDS011;41802;51.564;-1.838;2023-04-03T01:00:16;9.15;;;1.77;;
55879;SDS011;41802;51.564;-1.838;2023-04-03T01:02:46;6.10;;;1.70;;
55879;SDS011;41802;51.564;-1.838;2023-04-03T01:05:14;7.33;;;1.50;;
55879;SDS011;41802;51.564;-1.838;2023-04-03T01:07:43;5.60;;;1.40;;
55879;SDS011;41802;51.564;-1.838;2023-04-03T01:10:11;8.23;;;1.92;;
55879;SDS011;41802;51.564;-1.838;2023-04-03T01:12:42;6.35;;;1.30;;
55879;SDS011;41802;51.564;-1.838;2023-04-03T01:15:14;6.18;;;1.55;;
55879;SDS011;41802;51.564;-1.838;2023-04-03T01:17:42;7.57;;;1.80;;
55879;SDS011;41802;51.564;-1.838;2023-04-03T01:22:54;6.30;;;1.73;;
55879;SDS011;41802;51.564;-1.838;2023-04-03T01:25:26;9.52;;;1.83;;
55879;SDS011;41802;51.564;-1.838;2023-04-03T01:27:55;7.00;;;1.90;;
55879;SDS011;41802;51.564;-1.838;2023-04-03T01:30:24;11.30;;;1.83;;
55879;SDS011;41802;51.564;-1.838;2023-04-03T01:32:54;6.32;;;1.60;;
55879;SDS011;41802;51.564;-1.838;2023-04-03T01:35:21;6.45;;;1.80;;
55879;SDS011;41802;51.564;-1.838;2023-04-03T01:37:49;7.65;;;1.73;;
55879;SDS011;41802;51.564;-1.838;2023-04-03T01:40:17;7.05;;;1.58;;
55879;SDS011;41802;51.564;-1.838;2023-04-03T01:42:44;9.57;;;1.73;;
55879;SDS011;41802;51.564;-1.838;2023-04-03T01:45:12;6.97;;;1.40;;
55879;SDS011;41802;51.564;-1.838;2023-04-03T01:47:41;8.20;;;1.38;;
55879;SDS011;41802;51.564;-1.838;2023-04-03T01:50:10;11.20;;;1.73;;
55879;SDS011;41802;51.564;-1.838;2023-04-03T01:52:38;5.65;;;1.52;;
55879;SDS011;41802;51.564;-1.838;2023-04-03T01:55:06;8.97;;;2.00;;
55879;SDS011;41802;51.564;-1.838;2023-04-03T01:57:34;8.32;;;1.45;;
55879;SDS011;41802;51.564;-1.838;2023-04-03T02:00:02;7.45;;;1.77;;
55879;SDS011;41802;51.564;-1.838;2023-04-03T02:02:29;8.98;;;1.50;;
55879;SDS011;41802;51.564;-1.838;2023-04-03T02:04:57;10.65;;;1.63;;
55879;SDS011;41802;51.564;-1.838;2023-04-03T02:07:26;8.57;;;1.70;;
55879;SDS011;41802;51.564;-1.838;2023-04-03T02:09:54;7.72;;;1.95;;
55879;SDS011;41802;51.564;-1.838;2023-04-03T02:12:21;5.90;;;1.33;;
55879;SDS011;41802;51.564;-1.838;2023-04-03T02:14:49;7.68;;;1.67;;
55879;SDS011;41802;51.564;-1.838;2023-04-03T02:17:17;7.35;;;1.90;;
55879;SDS011;41802;51.564;-1.838;2023-04-03T02:19:45;9.63;;;1.90;;
55879;SDS011;41802;51.564;-1.838;2023-04-03T02:22:13;7.30;;;2.10;;
55879;SDS011;41802;51.564;-1.838;2023-04-03T02:24:42;6.82;;;2.00;;
55879;SDS011;41802;51.564;-1.838;2023-04-03T02:27:10;8.27;;;1.83;;
55879;SDS011;41802;51.564;-1.838;2023-04-03T02:29:38;7.18;;;2.03;;
55879;SDS011;41802;51.564;-1.838;2023-04-03T02:32:05;8.20;;;1.90;;
55879;SDS011;41802;51.564;-1.838;2023-04-03T02:34:33;5.75;;;1.65;;
55879;SDS011;41802;51.564;-1.838;2023-04-03T02:37:00;8.10;;;2.08;;
55879;SDS011;41802;51.564;-1.838;2023-04-03T02:39:28;6.63;;;1.65;;
55879;SDS011;41802;51.564;-1.838;2023-04-03T02:41:59;5.90;;;1.73;;
55879;SDS011;41802;51.564;-1.838;2023-04-03T02:44:26;9.17;;;1.87;;
55879;SDS011;41802;51.564;-1.838;2023-04-03T02:46:54;6.43;;;1.80;;
55879;SDS011;41802;51.564;-1.838;2023-04-03T02:49:22;7.07;;;1.80;;
55879;SDS011;41802;51.564;-1.838;2023-04-03T02:51:49;5.65;;;1.77;;
55879;SDS011;41802;51.564;-1.838;2023-04-03T02:54:18;9.73;;;1.90;;
55879;SDS011;41802;51.564;-1.838;2023-04-03T02:56:45;8.90;;;2.23;;
55879;SDS011;41802;51.564;-1.838;2023-04-03T02:59:15;7.93;;;1.65;;
55879;SDS011;41802;51.564;-1.838;2023-04-03T03:01:42;6.35;;;1.95;;
55879;SDS011;41802;51.564;-1.838;2023-04-03T03:04:10;8.18;;;1.90;;
55879;SDS011;41802;51.564;-1.838;2023-04-03T03:06:38;10.27;;;1.95;;
55879;SDS011;41802;51.564;-1.838;2023-04-03T03:09:08;9.37;;;2.50;;
55879;SDS011;41802;51.564;-1.838;2023-04-03T03:11:35;10.40;;;2.35;;
55879;SDS011;41802;51.564;-1.838;2023-04-03T03:14:03;9.02;;;2.00;;
55879;SDS011;41802;51.564;-1.838;2023-04-03T03:16:32;6.97;;;1.90;;
55879;SDS011;41802;51.564;-1.838;2023-04-03T03:19:00;8.20;;;1.80;;
55879;SDS011;41802;51.564;-1.838;2023-04-03T03:21:28;9.13;;;2.10;;
55879;SDS011;41802;51.564;-1.838;2023-04-03T03:23:55;8.20;;;2.17;;
55879;SDS011;41802;51.564;-1.838;2023-04-03T03:26:23;6.60;;;1.98;;
55879;SDS011;41802;51.564;-1.838;2023-04-03T03:28:51;9.45;;;2.28;;
55879;SDS011;41802;51.564;-1.838;2023-04-03T03:31:19;7.45;;;1.80;;
55879;SDS011;41802;51.564;-1.838;2023-04-03T03:33:48;6.80;;;2.23;;
55879;SDS011;41802;51.564;-1.838;2023-04-03T03:36:15;7.93;;;1.83;;
55879;SDS011;41802;51.564;-1.838;2023-04-03T03:38:47;6.68;;;1.92;;
55879;SDS011;41802;51.564;-1.838;2023-04-03T03:41:15;7.25;;;1.88;;
55879;SDS011;41802;51.564;-1.838;2023-04-03T03:43:42;9.20;;;2.53;;
55879;SDS011;41802;51.564;-1.838;2023-04-03T03:46:10;7.50;;;2.27;;
55879;SDS011;41802;51.564;-1.838;2023-04-03T03:48:38;8.70;;;2.20;;
55879;SDS011;41802;51.564;-1.838;2023-04-03T03:51:07;9.18;;;1.95;;
55879;SDS011;41802;51.564;-1.838;2023-04-03T03:53:34;9.32;;;2.08;;
55879;SDS011;41802;51.564;-1.838;2023-04-03T03:56:02;8.00;;;1.52;;
55879;SDS011;41802;51.564;-1.838;2023-04-03T03:58:31;6.57;;;1.77;;
55879;SDS011;41802;51.564;-1.838;2023-04-03T04:01:00;7.82;;;2.20;;
55879;SDS011;41802;51.564;-1.838;2023-04-03T04:03:27;8.68;;;2.30;;
55879;SDS011;41802;51.564;-1.838;2023-04-03T04:05:55;6.85;;;2.15;;
55879;SDS011;41802;51.564;-1.838;2023-04-03T04:08:24;7.93;;;2.15;;
55879;SDS011;41802;51.564;-1.838;2023-04-03T04:10:52;7.70;;;2.57;;
55879;SDS011;41802;51.564;-1.838;2023-04-03T04:13:20;12.07;;;1.95;;
55879;SDS011;41802;51.564;-1.838;2023-04-03T04:15:48;8.45;;;2.22;;
55879;SDS011;41802;51.564;-1.838;2023-04-03T04:18:15;6.78;;;1.77;;
55879;SDS011;41802;51.564;-1.838;2023-04-03T04:20:44;9.52;;;2.38;;
55879;SDS011;41802;51.564;-1.838;2023-04-03T04:23:12;8.77;;;1.90;;
55879;SDS011;41802;51.564;-1.838;2023-04-03T04:25:43;6.45;;;1.63;;
55879;SDS011;41802;51.564;-1.838;2023-04-03T04:28:11;9.80;;;2.28;;
55879;SDS011;41802;51.564;-1.838;2023-04-03T04:30:40;9.43;;;2.35;;
55879;SDS011;41802;51.564;-1.838;2023-04-03T04:33:07;9.25;;;2.53;;
55879;SDS011;41802;51.564;-1.838;2023-04-03T04:35:36;8.53;;;2.30;;
55879;SDS011;41802;51.564;-1.838;2023-04-03T04:38:04;7.03;;;1.98;;
55879;SDS011;41802;51.564;-1.838;2023-04-03T04:40:31;7.72;;;2.28;;
55879;SDS011;41802;51.564;-1.838;2023-04-03T04:43:01;8.15;;;2.17;;
55879;SDS011;41802;51.564;-1.838;2023-04-03T04:45:28;8.00;;;2.15;;
55879;SDS011;41802;51.564;-1.838;2023-04-03T04:47:56;6.73;;;2.37;;
55879;SDS011;41802;51.564;-1.838;2023-04-03T04:50:24;7.97;;;2.08;;
55879;SDS011;41802;51.564;-1.838;2023-04-03T04:52:52;8.73;;;2.05;;
55879;SDS011;41802;51.564;-1.838;2023-04-03T04:55:19;9.32;;;2.40;;
55879;SDS011;41802;51.564;-1.838;2023-04-03T04:57:47;12.38;;;2.80;;
55879;SDS011;41802;51.564;-1.838;2023-04-03T05:00:16;10.83;;;2.70;;
55879;SDS011;41802;51.564;-1.838;2023-04-03T05:02:44;11.20;;;2.40;;
55879;SDS011;41802;51.564;-1.838;2023-04-03T05:05:12;9.18;;;2.70;;
55879;SDS011;41802;51.564;-1.838;2023-04-03T05:07:41;9.05;;;2.58;;
55879;SDS011;41802;51.564;-1.838;2023-04-03T05:10:09;7.25;;;2.30;;
55879;SDS011;41802;51.564;-1.838;2023-04-03T05:12:37;8.80;;;2.53;;
55879;SDS011;41802;51.564;-1.838;2023-04-03T05:15:05;10.77;;;2.78;;
55879;SDS011;41802;51.564;-1.838;2023-04-03T05:17:34;8.15;;;2.10;;
55879;SDS011;41802;51.564;-1.838;2023-04-03T05:20:02;9.50;;;2.28;;
55879;SDS011;41802;51.564;-1.838;2023-04-03T05:22:30;7.88;;;2.60;;
55879;SDS011;41802;51.564;-1.838;2023-04-03T05:24:58;10.73;;;2.40;;
55879;SDS011;41802;51.564;-1.838;2023-04-03T05:27:26;8.60;;;2.30;;
55879;SDS011;41802;51.564;-1.838;2023-04-03T05:29:55;8.10;;;2.47;;
55879;SDS011;41802;51.564;-1.838;2023-04-03T05:32:23;8.73;;;2.55;;
55879;SDS011;41802;51.564;-1.838;2023-04-03T05:34:52;8.43;;;2.42;;
55879;SDS011;41802;51.564;-1.838;2023-04-03T05:37:20;7.13;;;2.50;;
55879;SDS011;41802;51.564;-1.838;2023-04-03T05:39:48;10.18;;;2.60;;
55879;SDS011;41802;51.564;-1.838;2023-04-03T05:42:16;8.18;;;2.38;;
55879;SDS011;41802;51.564;-1.838;2023-04-03T05:44:43;8.50;;;2.88;;
55879;SDS011;41802;51.564;-1.838;2023-04-03T05:47:13;9.05;;;2.42;;
55879;SDS011;41802;51.564;-1.838;2023-04-03T05:49:41;9.27;;;2.70;;
55879;SDS011;41802;51.564;-1.838;2023-04-03T05:52:16;10.32;;;2.95;;
55879;SDS011;41802;51.564;-1.838;2023-04-03T05:54:45;9.50;;;2.33;;
55879;SDS011;41802;51.564;-1.838;2023-04-03T05:57:14;7.60;;;2.28;;
55879;SDS011;41802;51.564;-1.838;2023-04-03T05:59:42;9.55;;;2.47;;
55879;SDS011;41802;51.564;-1.838;2023-04-03T06:02:11;10.20;;;3.23;;
55879;SDS011;41802;51.564;-1.838;2023-04-03T06:04:39;11.50;;;3.20;;
55879;SDS011;41802;51.564;-1.838;2023-04-03T06:07:09;8.27;;;2.53;;
55879;SDS011;41802;51.564;-1.838;2023-04-03T06:09:40;7.95;;;2.47;;
55879;SDS011;41802;51.564;-1.838;2023-04-03T06:12:07;11.18;;;2.92;;
55879;SDS011;41802;51.564;-1.838;2023-04-03T06:14:35;8.13;;;3.10;;
55879;SDS011;41802;51.564;-1.838;2023-04-03T06:17:02;7.95;;;2.97;;
55879;SDS011;41802;51.564;-1.838;2023-04-03T06:19:30;10.02;;;3.35;;
55879;SDS011;41802;51.564;-1.838;2023-04-03T06:21:58;9.85;;;2.83;;
55879;SDS011;41802;51.564;-1.838;2023-04-03T06:24:25;10.23;;;3.30;;
55879;SDS011;41802;51.564;-1.838;2023-04-03T06:26:54;9.37;;;3.30;;
55879;SDS011;41802;51.564;-1.838;2023-04-03T06:29:23;13.25;;;3.72;;
55879;SDS011;41802;51.564;-1.838;2023-04-03T06:31:52;10.35;;;3.72;;
55879;SDS011;41802;51.564;-1.838;2023-04-03T06:34:19;8.77;;;3.53;;
55879;SDS011;41802;51.564;-1.838;2023-04-03T06:36:48;10.90;;;3.10;;
55879;SDS011;41802;51.564;-1.838;2023-04-03T06:39:17;10.07;;;3.10;;
55879;SDS011;41802;51.564;-1.838;2023-04-03T06:41:45;10.10;;;3.08;;
55879;SDS011;41802;51.564;-1.838;2023-04-03T06:44:14;9.55;;;3.53;;
55879;SDS011;41802;51.564;-1.838;2023-04-03T06:46:42;11.80;;;3.28;;
55879;SDS011;41802;51.564;-1.838;2023-04-03T06:49:11;8.48;;;3.25;;
55879;SDS011;41802;51.564;-1.838;2023-04-03T06:51:40;12.20;;;3.27;;
55879;SDS011;41802;51.564;-1.838;2023-04-03T06:54:08;12.32;;;3.33;;
55879;SDS011;41802;51.564;-1.838;2023-04-03T06:56:36;11.82;;;2.50;;
55879;SDS011;41802;51.564;-1.838;2023-04-03T06:59:03;12.27;;;3.05;;
55879;SDS011;41802;51.564;-1.838;2023-04-03T07:01:32;8.75;;;2.53;;
55879;SDS011;41802;51.564;-1.838;2023-04-03T07:04:00;8.47;;;2.73;;
55879;SDS011;41802;51.564;-1.838;2023-04-03T07:06:28;10.75;;;2.10;;
55879;SDS011;41802;51.564;-1.838;2023-04-03T07:08:57;10.90;;;2.92;;
55879;SDS011;41802;51.564;-1.838;2023-04-03T07:11:25;12.70;;;3.03;;
55879;SDS011;41802;51.564;-1.838;2023-04-03T07:13:55;11.73;;;2.30;;
55879;SDS011;41802;51.564;-1.838;2023-04-03T07:16:23;9.47;;;2.33;;
55879;SDS011;41802;51.564;-1.838;2023-04-03T07:18:52;10.10;;;1.98;;
55879;SDS011;41802;51.564;-1.838;2023-04-03T07:21:19;10.32;;;2.17;;
55879;SDS011;41802;51.564;-1.838;2023-04-03T07:23:47;10.38;;;1.98;;
55879;SDS011;41802;51.564;-1.838;2023-04-03T07:26:20;7.10;;;2.33;;
55879;SDS011;41802;51.564;-1.838;2023-04-03T07:28:49;11.33;;;1.70;;
55879;SDS011;41802;51.564;-1.838;2023-04-03T07:31:16;10.05;;;2.25;;
55879;SDS011;41802;51.564;-1.838;2023-04-03T07:33:45;7.88;;;2.55;;
55879;SDS011;41802;51.564;-1.838;2023-04-03T07:36:16;6.53;;;1.98;;
55879;SDS011;41802;51.564;-1.838;2023-04-03T07:38:44;5.90;;;1.92;;
55879;SDS011;41802;51.564;-1.838;2023-04-03T07:41:11;8.43;;;2.17;;
55879;SDS011;41802;51.564;-1.838;2023-04-03T07:43:41;10.75;;;2.35;;
55879;SDS011;41802;51.564;-1.838;2023-04-03T07:46:09;6.10;;;2.13;;
55879;SDS011;41802;51.564;-1.838;2023-04-03T07:48:37;5.57;;;1.40;;
55879;SDS011;41802;51.564;-1.838;2023-04-03T07:51:05;8.45;;;1.58;;
55879;SDS011;41802;51.564;-1.838;2023-04-03T07:53:34;8.13;;;1.90;;
55879;SDS011;41802;51.564;-1.838;2023-04-03T07:56:02;6.60;;;1.65;;
55879;SDS011;41802;51.564;-1.838;2023-04-03T07:58:30;8.07;;;1.83;;
55879;SDS011;41802;51.564;-1.838;2023-04-03T08:00:58;8.82;;;1.85;;
55879;SDS011;41802;51.564;-1.838;2023-04-03T08:03:26;8.18;;;1.20;;
55879;SDS011;41802;51.564;-1.838;2023-04-03T08:05:54;7.80;;;1.90;;
55879;SDS011;41802;51.564;-1.838;2023-04-03T08:08:22;9.60;;;1.42;;
55879;SDS011;41802;51.564;-1.838;2023-04-03T08:10:52;8.00;;;1.70;;
55879;SDS011;41802;51.564;-1.838;2023-04-03T08:13:21;8.63;;;1.45;;
55879;SDS011;41802;51.564;-1.838;2023-04-03T08:15:49;7.57;;;1.92;;
55879;SDS011;41802;51.564;-1.838;2023-04-03T08:18:17;6.03;;;1.43;;
55879;SDS011;41802;51.564;-1.838;2023-04-03T08:20:47;7.68;;;1.35;;
55879;SDS011;41802;51.564;-1.838;2023-04-03T08:23:15;7.45;;;1.23;;
55879;SDS011;41802;51.564;-1.838;2023-04-03T08:25:45;6.00;;;1.27;;
55879;SDS011;41802;51.564;-1.838;2023-04-03T08:28:14;6.88;;;1.35;;
55879;SDS011;41802;51.564;-1.838;2023-04-03T08:30:42;5.83;;;1.37;;
55879;SDS011;41802;51.564;-1.838;2023-04-03T08:33:10;5.15;;;1.05;;
55879;SDS011;41802;51.564;-1.838;2023-04-03T08:35:38;7.53;;;1.38;;
55879;SDS011;41802;51.564;-1.838;2023-04-03T08:38:07;12.50;;;1.30;;
55879;SDS011;41802;51.564;-1.838;2023-04-03T08:40:34;10.77;;;1.42;;
55879;SDS011;41802;51.564;-1.838;2023-04-03T08:43:04;10.30;;;1.10;;
55879;SDS011;41802;51.564;-1.838;2023-04-03T08:45:43;5.75;;;1.40;;
55879;SDS011;41802;51.564;-1.838;2023-04-03T08:48:14;8.57;;;1.77;;
55879;SDS011;41802;51.564;-1.838;2023-04-03T08:50:43;7.95;;;1.20;;
55879;SDS011;41802;51.564;-1.838;2023-04-03T08:53:14;8.73;;;1.30;;
55879;SDS011;41802;51.564;-1.838;2023-04-03T08:55:44;8.00;;;1.17;;
55879;SDS011;41802;51.564;-1.838;2023-04-03T08:58:14;8.10;;;1.13;;
55879;SDS011;41802;51.564;-1.838;2023-04-03T09:00:46;6.55;;;1.60;;
55879;SDS011;41802;51.564;-1.838;2023-04-03T09:03:16;8.70;;;1.45;;
55879;SDS011;41802;51.564;-1.838;2023-04-03T09:05:45;5.75;;;1.02;;
55879;SDS011;41802;51.564;-1.838;2023-04-03T09:08:18;7.73;;;1.70;;
55879;SDS011;41802;51.564;-1.838;2023-04-03T09:10:49;6.72;;;1.25;;
55879;SDS011;41802;51.564;-1.838;2023-04-03T09:13:22;6.57;;;1.40;;
55879;SDS011;41802;51.564;-1.838;2023-04-03T09:15:54;6.60;;;1.10;;
55879;SDS011;41802;51.564;-1.838;2023-04-03T09:18:25;7.70;;;1.38;;
55879;SDS011;41802;51.564;-1.838;2023-04-03T09:20:56;5.00;;;1.30;;
55879;SDS011;41802;51.564;-1.838;2023-04-03T09:23:27;6.75;;;1.75;;
55879;SDS011;41802;51.564;-1.838;2023-04-03T09:25:58;4.55;;;1.10;;
55879;SDS011;41802;51.564;-1.838;2023-04-03T09:28:28;5.88;;;1.02;;
55879;SDS011;41802;51.564;-1.838;2023-04-03T09:31:13;8.02;;;0.98;;
55879;SDS011;41802;51.564;-1.838;2023-04-03T09:33:43;6.27;;;1.30;;
55879;SDS011;41802;51.564;-1.838;2023-04-03T09:36:11;7.13;;;1.35;;
55879;SDS011;41802;51.564;-1.838;2023-04-03T09:38:40;7.55;;;1.58;;
55879;SDS011;41802;51.564;-1.838;2023-04-03T09:41:12;8.82;;;1.40;;
55879;SDS011;41802;51.564;-1.838;2023-04-03T09:43:41;3.97;;;0.88;;
55879;SDS011;41802;51.564;-1.838;2023-04-03T09:46:33;8.87;;;1.50;;
55879;SDS011;41802;51.564;-1.838;2023-04-03T09:49:04;9.80;;;1.92;;
55879;SDS011;41802;51.564;-1.838;2023-04-03T09:51:35;6.78;;;2.20;;
55879;SDS011;41802;51.564;-1.838;2023-04-03T09:54:23;9.25;;;1.75;;
55879;SDS011;41802;51.564;-1.838;2023-04-03T09:56:52;5.97;;;1.40;;
55879;SDS011;41802;51.564;-1.838;2023-04-03T09:59:22;6.50;;;1.90;;
55879;SDS011;41802;51.564;-1.838;2023-04-03T10:01:57;8.57;;;1.90;;
55879;SDS011;41802;51.564;-1.838;2023-04-03T10:04:25;7.03;;;1.63;;
55879;SDS011;41802;51.564;-1.838;2023-04-03T10:07:03;7.32;;;1.90;;
55879;SDS011;41802;51.564;-1.838;2023-04-03T10:09:36;6.53;;;2.10;;
55879;SDS011;41802;51.564;-1.838;2023-04-03T10:12:08;5.50;;;1.40;;
55879;SDS011;41802;51.564;-1.838;2023-04-03T10:14:37;7.00;;;1.58;;
55879;SDS011;41802;51.564;-1.838;2023-04-03T10:17:16;7.25;;;2.13;;
55879;SDS011;41802;51.564;-1.838;2023-04-03T10:19:46;5.32;;;1.77;;
55879;SDS011;41802;51.564;-1.838;2023-04-03T10:22:16;5.82;;;1.80;;
55879;SDS011;41802;51.564;-1.838;2023-04-03T10:24:48;7.03;;;1.30;;
55879;SDS011;41802;51.564;-1.838;2023-04-03T10:27:20;6.10;;;1.80;;
55879;SDS011;41802;51.564;-1.838;2023-04-03T10:29:55;9.27;;;1.75;;
55879;SDS011;41802;51.564;-1.838;2023-04-03T10:35:10;8.27;;;1.88;;
55879;SDS011;41802;51.564;-1.838;2023-04-03T10:37:46;7.57;;;1.63;;
55879;SDS011;41802;51.564;-1.838;2023-04-03T10:40:22;10.45;;;2.45;;
55879;SDS011;41802;51.564;-1.838;2023-04-03T10:42:52;9.27;;;2.03;;
55879;SDS011;41802;51.564;-1.838;2023-04-03T10:45:24;5.10;;;1.42;;
55879;SDS011;41802;51.564;-1.838;2023-04-03T10:47:56;11.32;;;2.47;;
55879;SDS011;41802;51.564;-1.838;2023-04-03T10:50:39;5.93;;;2.17;;
55879;SDS011;41802;51.564;-1.838;2023-04-03T10:53:14;7.68;;;2.17;;
55879;SDS011;41802;51.564;-1.838;2023-04-03T10:55:49;9.75;;;2.47;;
55879;SDS011;41802;51.564;-1.838;2023-04-03T10:58:20;5.85;;;1.55;;
55879;SDS011;41802;51.564;-1.838;2023-04-03T11:00:51;8.57;;;2.05;;
55879;SDS011;41802;51.564;-1.838;2023-04-03T11:03:24;7.03;;;1.77;;
55879;SDS011;41802;51.564;-1.838;2023-04-03T11:05:56;8.82;;;2.00;;
55879;SDS011;41802;51.564;-1.838;2023-04-03T11:08:26;5.95;;;2.38;;
55879;SDS011;41802;51.564;-1.838;2023-04-03T11:10:55;7.03;;;1.67;;
55879;SDS011;41802;51.564;-1.838;2023-04-03T11:13:24;5.82;;;1.83;;
55879;SDS011;41802;51.564;-1.838;2023-04-03T11:15:54;6.10;;;1.93;;
55879;SDS011;41802;51.564;-1.838;2023-04-03T11:18:22;15.40;;;2.63;;
55879;SDS011;41802;51.564;-1.838;2023-04-03T11:20:58;7.65;;;2.42;;
55879;SDS011;41802;51.564;-1.838;2023-04-03T11:23:59;8.38;;;2.75;;
55879;SDS011;41802;51.564;-1.838;2023-04-03T11:26:31;8.50;;;1.98;;
55879;SDS011;41802;51.564;-1.838;2023-04-03T11:29:04;5.17;;;1.90;;
55879;SDS011;41802;51.564;-1.838;2023-04-03T11:31:38;8.27;;;1.90;;
55879;SDS011;41802;51.564;-1.838;2023-04-03T11:34:11;6.45;;;1.98;;
55879;SDS011;41802;51.564;-1.838;2023-04-03T11:36:42;7.65;;;2.20;;
55879;SDS011;41802;51.564;-1.838;2023-04-03T11:39:17;13.18;;;2.58;;
55879;SDS011;41802;51.564;-1.838;2023-04-03T11:41:47;7.07;;;2.67;;
55879;SDS011;41802;51.564;-1.838;2023-04-03T11:44:27;5.18;;;1.67;;
55879;SDS011;41802;51.564;-1.838;2023-04-03T11:46:57;10.93;;;2.33;;
55879;SDS011;41802;51.564;-1.838;2023-04-03T11:52:11;10.73;;;2.17;;
55879;SDS011;41802;51.564;-1.838;2023-04-03T11:54:46;8.00;;;2.50;;
55879;SDS011;41802;51.564;-1.838;2023-04-03T12:00:19;6.97;;;1.90;;
55879;SDS011;41802;51.564;-1.838;2023-04-03T12:02:49;6.53;;;2.03;;
55879;SDS011;41802;51.564;-1.838;2023-04-03T12:05:27;7.60;;;2.90;;
55879;SDS011;41802;51.564;-1.838;2023-04-03T12:10:42;7.17;;;2.33;;
55879;SDS011;41802;51.564;-1.838;2023-04-03T12:14:01;7.18;;;2.40;;
55879;SDS011;41802;51.564;-1.838;2023-04-03T12:16:32;7.57;;;2.28;;
55879;SDS011;41802;51.564;-1.838;2023-04-03T12:19:00;7.32;;;2.40;;
55879;SDS011;41802;51.564;-1.838;2023-04-03T12:24:23;7.17;;;2.63;;
55879;SDS011;41802;51.564;-1.838;2023-04-03T12:27:02;6.50;;;2.65;;
55879;SDS011;41802;51.564;-1.838;2023-04-03T12:29:33;10.88;;;2.90;;
55879;SDS011;41802;51.564;-1.838;2023-04-03T12:32:06;8.23;;;2.30;;
55879;SDS011;41802;51.564;-1.838;2023-04-03T12:34:39;9.30;;;2.80;;
55879;SDS011;41802;51.564;-1.838;2023-04-03T12:37:09;8.90;;;2.73;;
55879;SDS011;41802;51.564;-1.838;2023-04-03T12:39:51;7.53;;;2.70;;
55879;SDS011;41802;51.564;-1.838;2023-04-03T12:42:24;8.90;;;2.63;;
55879;SDS011;41802;51.564;-1.838;2023-04-03T12:44:59;8.40;;;2.60;;
55879;SDS011;41802;51.564;-1.838;2023-04-03T12:47:31;5.90;;;2.63;;
55879;SDS011;41802;51.564;-1.838;2023-04-03T12:50:00;10.80;;;2.70;;
55879;SDS011;41802;51.564;-1.838;2023-04-03T12:52:33;11.77;;;2.97;;
55879;SDS011;41802;51.564;-1.838;2023-04-03T12:55:03;8.30;;;2.67;;
55879;SDS011;41802;51.564;-1.838;2023-04-03T12:57:38;9.30;;;2.60;;
55879;SDS011;41802;51.564;-1.838;2023-04-03T13:00:20;8.50;;;2.47;;
55879;SDS011;41802;51.564;-1.838;2023-04-03T13:02:48;6.50;;;2.33;;
55879;SDS011;41802;51.564;-1.838;2023-04-03T13:05:17;8.23;;;2.30;;
55879;SDS011;41802;51.564;-1.838;2023-04-03T13:07:47;8.15;;;2.88;;
55879;SDS011;41802;51.564;-1.838;2023-04-03T13:10:18;9.93;;;3.00;;
55879;SDS011;41802;51.564;-1.838;2023-04-03T13:12:48;9.48;;;3.03;;
55879;SDS011;41802;51.564;-1.838;2023-04-03T13:15:17;7.03;;;2.93;;
55879;SDS011;41802;51.564;-1.838;2023-04-03T13:17:45;8.57;;;3.08;;
55879;SDS011;41802;51.564;-1.838;2023-04-03T13:20:18;9.82;;;3.17;;
55879;SDS011;41802;51.564;-1.838;2023-04-03T13:22:50;9.35;;;3.10;;
55879;SDS011;41802;51.564;-1.838;2023-04-03T13:25:20;9.70;;;3.58;;
55879;SDS011;41802;51.564;-1.838;2023-04-03T13:27:50;7.57;;;3.37;;
55879;SDS011;41802;51.564;-1.838;2023-04-03T13:30:32;8.57;;;3.00;;
55879;SDS011;41802;51.564;-1.838;2023-04-03T13:33:01;8.45;;;3.05;;
55879;SDS011;41802;51.564;-1.838;2023-04-03T13:35:31;9.77;;;3.60;;
55879;SDS011;41802;51.564;-1.838;2023-04-03T13:37:59;8.65;;;3.20;;
55879;SDS011;41802;51.564;-1.838;2023-04-03T13:40:28;9.37;;;3.47;;
55879;SDS011;41802;51.564;-1.838;2023-04-03T13:43:18;9.18;;;2.97;;
55879;SDS011;41802;51.564;-1.838;2023-04-03T13:45:53;6.38;;;2.65;;
55879;SDS011;41802;51.564;-1.838;2023-04-03T13:48:23;8.52;;;2.92;;
55879;SDS011;41802;51.564;-1.838;2023-04-03T13:50:58;9.07;;;3.40;;
55879;SDS011;41802;51.564;-1.838;2023-04-03T13:53:27;7.13;;;2.87;;
55879;SDS011;41802;51.564;-1.838;2023-04-03T13:55:57;9.98;;;3.60;;
55879;SDS011;41802;51.564;-1.838;2023-04-03T13:58:26;11.07;;;3.80;;
55879;SDS011;41802;51.564;-1.838;2023-04-03T14:01:00;10.43;;;3.20;;
55879;SDS011;41802;51.564;-1.838;2023-04-03T14:03:29;10.30;;;2.50;;
55879;SDS011;41802;51.564;-1.838;2023-04-03T14:05:58;6.90;;;2.57;;
55879;SDS011;41802;51.564;-1.838;2023-04-03T14:08:27;9.75;;;3.30;;
55879;SDS011;41802;51.564;-1.838;2023-04-03T14:11:10;6.78;;;2.70;;
55879;SDS011;41802;51.564;-1.838;2023-04-03T14:13:40;10.10;;;2.25;;
55879;SDS011;41802;51.564;-1.838;2023-04-03T14:16:11;9.27;;;3.00;;
55879;SDS011;41802;51.564;-1.838;2023-04-03T14:18:42;10.60;;;2.90;;
55879;SDS011;41802;51.564;-1.838;2023-04-03T14:21:10;5.90;;;1.50;;
55879;SDS011;41802;51.564;-1.838;2023-04-03T14:23:38;6.90;;;3.10;;
55879;SDS011;41802;51.564;-1.838;2023-04-03T14:26:08;7.60;;;3.42;;
55879;SDS011;41802;51.564;-1.838;2023-04-03T14:28:37;8.82;;;3.67;;
55879;SDS011;41802;51.564;-1.838;2023-04-03T14:31:10;9.00;;;3.27;;
55879;SDS011;41802;51.564;-1.838;2023-04-03T14:33:39;8.27;;;2.97;;
55879;SDS011;41802;51.564;-1.838;2023-04-03T14:36:10;10.95;;;3.70;;
55879;SDS011;41802;51.564;-1.838;2023-04-03T14:38:39;9.35;;;3.08;;
55879;SDS011;41802;51.564;-1.838;2023-04-03T14:41:07;10.57;;;3.35;;
55879;SDS011;41802;51.564;-1.838;2023-04-03T14:43:42;11.20;;;3.37;;
55879;SDS011;41802;51.564;-1.838;2023-04-03T14:46:13;7.80;;;3.60;;
55879;SDS011;41802;51.564;-1.838;2023-04-03T14:48:41;11.98;;;3.90;;
55879;SDS011;41802;51.564;-1.838;2023-04-03T14:51:09;8.77;;;3.53;;
55879;SDS011;41802;51.564;-1.838;2023-04-03T14:53:38;9.45;;;3.45;;
55879;SDS011;41802;51.564;-1.838;2023-04-03T14:56:10;12.73;;;4.00;;
55879;SDS011;41802;51.564;-1.838;2023-04-03T14:58:38;13.07;;;3.45;;
55879;SDS011;41802;51.564;-1.838;2023-04-03T15:01:06;8.65;;;3.40;;
55879;SDS011;41802;51.564;-1.838;2023-04-03T15:03:35;8.68;;;3.00;;
55879;SDS011;41802;51.564;-1.838;2023-04-03T15:06:03;8.98;;;3.70;;